Time;durP1;ratioP1;P1;durP2;ratioP2;P2;SDS_P1;SDS_P2;PMS_P1;PMS_P2;Temp;Humidity;BMP_temperature;BMP_pressure;BME280_temperature;BME280_humidity;BME280_pressure;Samples;Min_cycle;Max_cycle;Signal;HPM_P1;HPM_P2
2022/03/28 00:01:31;;;;;;;163.45;76.63;;;5.40;99.90;;;;;;5054146;28;20029;-53
2022/03/28 00:03:57;;;;;;;163.98;78.50;;;5.40;99.90;;;;;;5054221;28;20028;-52
2022/03/28 00:06:24;;;;;;;167.63;73.78;;;5.30;99.90;;;;;;5054223;28;20021;-53
2022/03/28 00:08:50;;;;;;;177.25;76.57;;;5.30;99.90;;;;;;5054138;28;20083;-53
2022/03/28 00:11:17;;;;;;;167.45;76.18;;;5.20;99.90;;;;;;5054215;28;20383;-52
2022/03/28 00:13:44;;;;;;;155.55;71.22;;;5.20;99.90;;;;;;5054037;28;20031;-52
2022/03/28 00:16:11;;;;;;;144.68;65.85;;;5.20;99.90;;;;;;5054179;28;20021;-53
2022/03/28 00:18:37;;;;;;;147.40;67.25;;;5.10;99.90;;;;;;5054074;28;20032;-52
2022/03/28 00:21:03;;;;;;;142.82;65.15;;;5.10;99.90;;;;;;5054048;28;20112;-53
2022/03/28 00:23:32;;;;;;;150.63;69.40;;;5.10;99.90;;;;;;5054001;28;20025;-52
2022/03/28 00:25:59;;;;;;;158.40;68.57;;;5.00;99.90;;;;;;5054026;28;20466;-52
2022/03/28 00:28:26;;;;;;;131.88;60.28;;;5.00;99.90;;;;;;5054008;28;20507;-53
2022/03/28 00:30:52;;;;;;;190.52;79.57;;;5.00;99.90;;;;;;5054064;28;20051;-52
2022/03/28 00:33:18;;;;;;;163.93;69.15;;;5.00;99.90;;;;;;5055279;28;20040;-52
2022/03/28 00:35:44;;;;;;;171.93;65.22;;;4.90;99.90;;;;;;5057891;28;20516;-52
2022/03/28 00:38:14;;;;;;;435.05;115.57;;;5.00;99.90;;;;;;5057885;28;20044;-52
2022/03/28 00:40:40;;;;;;;439.00;115.45;;;4.90;99.90;;;;;;5057580;28;20386;-52
2022/03/28 00:43:08;;;;;;;357.63;99.18;;;4.90;99.90;;;;;;5057679;28;20025;-52
2022/03/28 00:45:37;;;;;;;270.00;81.60;;;4.80;99.90;;;;;;5057534;28;20044;-52
2022/03/28 00:48:04;;;;;;;301.90;89.30;;;4.80;99.90;;;;;;5057590;28;20036;-52
2022/03/28 00:50:30;;;;;;;317.17;98.68;;;4.80;99.90;;;;;;5057695;28;20037;-53
2022/03/28 00:52:57;;;;;;;200.38;70.45;;;4.90;99.90;;;;;;5057531;28;20434;-53
2022/03/28 00:55:23;;;;;;;171.68;64.63;;;4.80;99.90;;;;;;5057204;28;20049;-52
2022/03/28 00:57:50;;;;;;;259.25;85.55;;;4.80;99.90;;;;;;5057578;28;20029;-52
2022/03/28 01:00:16;;;;;;;247.10;83.38;;;4.80;99.90;;;;;;5057314;28;20135;-53
2022/03/28 01:02:43;;;;;;;214.10;74.57;;;4.70;99.90;;;;;;5057240;28;20059;-53
2022/03/28 01:05:10;;;;;;;216.95;73.93;;;4.70;99.90;;;;;;5057182;28;20048;-53
2022/03/28 01:07:39;;;;;;;180.10;67.63;;;4.60;99.90;;;;;;5057221;28;20090;-52
2022/03/28 01:10:05;;;;;;;141.43;57.90;;;4.50;99.90;;;;;;5057046;28;20421;-53
2022/03/28 01:12:32;;;;;;;144.13;58.72;;;4.60;99.90;;;;;;5057272;28;20032;-52
2022/03/28 01:14:59;;;;;;;112.32;49.00;;;4.60;99.90;;;;;;5057088;28;20367;-52
2022/03/28 01:20:10;;;;;;;110.15;47.33;;;4.50;99.90;;;;;;5056763;28;20037;-52
2022/03/28 01:22:37;;;;;;;111.53;50.08;;;4.50;99.90;;;;;;5056728;28;20032;-52
2022/03/28 01:25:05;;;;;;;130.55;53.17;;;4.60;99.90;;;;;;5056930;28;20364;-53
2022/03/28 01:27:33;;;;;;;112.90;51.45;;;4.50;99.90;;;;;;5056916;28;20029;-52
2022/03/28 01:29:59;;;;;;;115.57;51.08;;;4.50;99.90;;;;;;5057068;28;20045;-53
2022/03/28 01:32:25;;;;;;;116.85;48.00;;;4.50;99.90;;;;;;5056588;28;20037;-52
2022/03/28 01:34:51;;;;;;;109.53;45.13;;;4.40;99.90;;;;;;5056631;28;20112;-52
2022/03/28 01:37:17;;;;;;;137.90;50.00;;;4.40;99.90;;;;;;5056652;28;20033;-53
2022/03/28 01:39:43;;;;;;;156.95;54.55;;;4.40;99.90;;;;;;5056954;28;20029;-52
2022/03/28 01:42:09;;;;;;;248.32;72.18;;;4.30;99.90;;;;;;5056563;28;20025;-53
2022/03/28 01:44:35;;;;;;;197.10;59.10;;;4.30;99.90;;;;;;5056208;28;20433;-53
2022/03/28 01:47:01;;;;;;;186.15;60.30;;;4.20;99.90;;;;;;5056309;28;20399;-52
2022/03/28 01:49:27;;;;;;;172.35;56.72;;;4.20;99.90;;;;;;5056362;28;20082;-52
2022/03/28 01:51:53;;;;;;;248.32;72.07;;;4.10;99.90;;;;;;5056184;28;20110;-52
2022/03/28 01:54:19;;;;;;;197.48;59.40;;;4.10;99.90;;;;;;5056433;28;20033;-52
2022/03/28 01:56:45;;;;;;;155.07;55.13;;;4.00;99.90;;;;;;5056175;28;20521;-52
2022/03/28 01:59:11;;;;;;;106.03;44.08;;;4.00;99.90;;;;;;5056409;28;20044;-52
2022/03/28 02:01:38;;;;;;;161.30;55.33;;;3.90;99.90;;;;;;5056226;28;20079;-53
2022/03/28 02:04:04;;;;;;;131.77;49.30;;;3.90;99.90;;;;;;5056361;28;20036;-53
2022/03/28 02:06:32;;;;;;;131.48;50.03;;;3.90;99.90;;;;;;5056343;28;20029;-52
2022/03/28 02:08:58;;;;;;;147.30;54.85;;;3.90;99.90;;;;;;5056116;28;20093;-52
2022/03/28 02:11:24;;;;;;;128.88;48.92;;;3.80;99.90;;;;;;5056161;28;20104;-53
2022/03/28 02:13:50;;;;;;;145.85;51.28;;;3.90;99.90;;;;;;5055988;28;20544;-52
2022/03/28 02:16:16;;;;;;;168.00;56.10;;;4.00;99.90;;;;;;5056089;28;20360;-52
2022/03/28 02:18:42;;;;;;;211.98;67.10;;;4.00;99.90;;;;;;5055838;28;20096;-53
2022/03/28 02:21:08;;;;;;;161.07;53.60;;;4.10;99.90;;;;;;5055673;28;20533;-53
2022/03/28 02:23:34;;;;;;;74.65;36.55;;;4.10;99.90;;;;;;5055843;28;20036;-53
2022/03/28 02:26:02;;;;;;;76.88;35.75;;;4.00;99.90;;;;;;5055997;28;20021;-52
2022/03/28 02:28:29;;;;;;;93.60;40.25;;;4.00;99.90;;;;;;5055740;28;20364;-52
2022/03/28 02:30:55;;;;;;;105.85;41.67;;;4.10;99.90;;;;;;5055771;28;20040;-52
2022/03/28 02:33:22;;;;;;;100.68;40.47;;;4.10;99.90;;;;;;5055407;28;20036;-52
2022/03/28 02:35:48;;;;;;;134.95;48.30;;;4.10;99.90;;;;;;5055552;28;20560;-52
2022/03/28 02:38:15;;;;;;;116.82;47.05;;;4.20;99.90;;;;;;5055667;28;20055;-52
2022/03/28 02:40:41;;;;;;;184.13;61.30;;;4.20;99.90;;;;;;5055298;28;20497;-53
2022/03/28 02:43:07;;;;;;;281.25;78.30;;;4.30;99.90;;;;;;5055628;28;20033;-53
2022/03/28 02:45:35;;;;;;;328.42;92.25;;;4.20;99.90;;;;;;5055262;28;20021;-52
2022/03/28 02:48:01;;;;;;;263.75;75.85;;;4.10;99.90;;;;;;5055307;28;20474;-53
2022/03/28 02:50:31;;;;;;;203.68;63.55;;;4.00;99.90;;;;;;5055419;28;20029;-52
2022/03/28 02:52:57;;;;;;;158.75;54.28;;;4.00;99.90;;;;;;5055240;28;20032;-53
2022/03/28 02:55:23;;;;;;;146.50;52.30;;;4.10;99.90;;;;;;5054418;28;20411;-53
2022/03/28 02:57:49;;;;;;;184.10;58.78;;;4.00;99.90;;;;;;5055091;28;20033;-52
2022/03/28 03:00:16;;;;;;;252.20;74.40;;;3.90;99.90;;;;;;5054933;28;20029;-52
2022/03/28 03:02:43;;;;;;;243.68;75.75;;;3.90;99.90;;;;;;5055113;28;20536;-53
2022/03/28 03:05:10;;;;;;;137.13;49.38;;;4.00;99.90;;;;;;5054956;28;20123;-53
2022/03/28 03:07:37;;;;;;;91.22;38.15;;;4.00;99.90;;;;;;5055010;28;20067;-52
2022/03/28 03:10:04;;;;;;;104.50;40.83;;;3.90;99.90;;;;;;5054898;28;20029;-52
2022/03/28 03:12:30;;;;;;;76.15;34.63;;;3.80;99.90;;;;;;5055078;28;20033;-52
2022/03/28 03:14:56;;;;;;;75.28;33.92;;;3.80;99.90;;;;;;5054740;28;20086;-52
2022/03/28 03:17:22;;;;;;;89.78;37.50;;;3.80;99.90;;;;;;5054738;28;20048;-52
2022/03/28 03:19:48;;;;;;;77.30;32.97;;;3.80;99.90;;;;;;5054719;28;20527;-52
2022/03/28 03:22:15;;;;;;;85.25;36.00;;;3.70;99.90;;;;;;5054514;28;20079;-52
2022/03/28 03:24:45;;;;;;;90.15;38.33;;;3.60;99.90;;;;;;5054671;28;20029;-52
2022/03/28 03:27:12;;;;;;;84.57;37.22;;;3.50;99.90;;;;;;5054720;28;20085;-53
2022/03/28 03:29:38;;;;;;;82.85;37.25;;;3.60;99.90;;;;;;5054420;28;20437;-52
2022/03/28 03:32:04;;;;;;;84.65;35.25;;;3.50;99.90;;;;;;5054308;28;20116;-53
2022/03/28 03:34:31;;;;;;;81.15;34.55;;;3.50;99.90;;;;;;5054579;28;20032;-52
2022/03/28 03:36:57;;;;;;;77.55;33.85;;;3.50;99.90;;;;;;5054754;28;20025;-53
2022/03/28 03:39:25;;;;;;;82.68;33.88;;;3.50;99.90;;;;;;5054301;28;20032;-52
2022/03/28 03:41:55;;;;;;;75.78;33.20;;;3.40;99.90;;;;;;5054416;28;20029;-52
2022/03/28 03:44:21;;;;;;;79.30;33.63;;;3.40;99.90;;;;;;5054304;28;20028;-53
2022/03/28 03:46:48;;;;;;;70.57;32.13;;;3.40;99.90;;;;;;5054176;28;20487;-53
2022/03/28 03:49:16;;;;;;;75.78;31.73;;;3.40;99.90;;;;;;5054378;28;20029;-52
2022/03/28 03:51:42;;;;;;;69.88;33.33;;;3.30;99.90;;;;;;5054173;28;20040;-53
2022/03/28 03:54:08;;;;;;;69.50;31.75;;;3.30;99.90;;;;;;5054350;28;20036;-53
2022/03/28 03:56:34;;;;;;;77.03;36.03;;;3.30;99.90;;;;;;5054030;28;20132;-52
2022/03/28 03:59:00;;;;;;;83.70;36.00;;;3.30;99.90;;;;;;5054253;28;20033;-52
2022/03/28 04:01:26;;;;;;;69.25;33.63;;;3.20;99.90;;;;;;5054147;28;20086;-52
2022/03/28 04:03:53;;;;;;;71.90;33.60;;;3.20;99.90;;;;;;5054268;28;20032;-52
2022/03/28 04:06:19;;;;;;;70.88;32.97;;;3.20;99.90;;;;;;5054118;28;20025;-52
2022/03/28 04:08:45;;;;;;;67.40;34.85;;;3.20;99.90;;;;;;5056818;28;20060;-52
2022/03/28 04:11:12;;;;;;;69.30;34.97;;;3.20;99.90;;;;;;5058042;28;20374;-53
2022/03/28 04:13:38;;;;;;;68.70;35.13;;;3.20;99.90;;;;;;5058183;28;20036;-52
2022/03/28 04:16:04;;;;;;;123.47;53.22;;;3.20;99.90;;;;;;5058120;28;20040;-52
2022/03/28 04:18:31;;;;;;;132.40;56.08;;;3.20;99.90;;;;;;5058340;28;20029;-52
2022/03/28 04:20:57;;;;;;;156.85;63.70;;;3.20;99.90;;;;;;5057945;28;20025;-53
2022/03/28 04:23:24;;;;;;;135.63;57.05;;;3.20;99.90;;;;;;5058104;28;20463;-52
2022/03/28 04:25:50;;;;;;;123.70;49.72;;;3.20;99.90;;;;;;5057947;28;20025;-53
2022/03/28 04:28:17;;;;;;;116.97;44.30;;;3.20;99.90;;;;;;5057952;28;20025;-53
2022/03/28 04:30:43;;;;;;;108.30;40.78;;;3.10;99.90;;;;;;5058036;28;20033;-52
2022/03/28 04:33:09;;;;;;;108.20;41.28;;;3.10;99.90;;;;;;5057478;28;20459;-53
2022/03/28 04:35:39;;;;;;;108.35;43.60;;;3.00;99.90;;;;;;5057871;28;20104;-52
2022/03/28 04:38:09;;;;;;;99.28;41.53;;;3.10;99.90;;;;;;5057738;28;20470;-52
2022/03/28 04:40:36;;;;;;;92.57;39.22;;;3.00;99.90;;;;;;5057752;28;20037;-52
2022/03/28 04:43:03;;;;;;;107.40;39.72;;;2.80;99.90;;;;;;5057712;28;20033;-52
2022/03/28 04:45:32;;;;;;;90.60;38.83;;;2.90;99.90;;;;;;5057463;28;20048;-53
2022/03/28 04:47:59;;;;;;;95.45;39.55;;;2.90;99.90;;;;;;5057619;28;20429;-52
2022/03/28 04:50:26;;;;;;;68.65;33.83;;;2.90;99.90;;;;;;5057752;28;20025;-52
2022/03/28 04:52:52;;;;;;;65.20;32.92;;;3.00;99.90;;;;;;5057197;28;20032;-52
2022/03/28 04:55:18;;;;;;;80.80;35.90;;;3.00;99.90;;;;;;5057224;28;20124;-53
2022/03/28 04:57:44;;;;;;;81.10;36.53;;;3.10;99.90;;;;;;5057303;28;20490;-53
2022/03/28 05:00:10;;;;;;;107.82;45.75;;;3.20;99.90;;;;;;5057199;28;20040;-53
2022/03/28 05:02:37;;;;;;;94.18;41.95;;;3.30;99.90;;;;;;5056962;28;20025;-52
2022/03/28 05:05:04;;;;;;;94.38;43.60;;;3.40;99.90;;;;;;5057395;28;20029;-52
2022/03/28 05:07:31;;;;;;;84.68;37.45;;;3.50;99.90;;;;;;5057053;28;20543;-53
2022/03/28 05:09:58;;;;;;;97.63;43.20;;;3.50;99.90;;;;;;5056873;28;20119;-53
2022/03/28 05:12:25;;;;;;;99.18;43.92;;;3.60;99.90;;;;;;5057655;28;20036;-53
2022/03/28 05:14:52;;;;;;;77.40;38.67;;;3.70;99.90;;;;;;5057907;28;20025;-53
2022/03/28 05:17:21;;;;;;;80.93;38.45;;;3.80;99.90;;;;;;5057726;28;20032;-53
2022/03/28 05:19:48;;;;;;;127.15;44.88;;;3.90;99.90;;;;;;5056541;28;20021;-53
2022/03/28 05:22:14;;;;;;;114.47;48.63;;;4.00;99.90;;;;;;5056588;28;20438;-53
2022/03/28 05:24:40;;;;;;;108.85;47.50;;;4.20;99.90;;;;;;5048124;28;20037;-53
2022/03/28 05:27:06;;;;;;;98.35;44.83;;;4.40;99.90;;;;;;5052989;28;20028;-53
2022/03/28 05:29:32;;;;;;;92.70;45.00;;;4.60;99.90;;;;;;5048585;28;20051;-53
2022/03/28 05:31:58;;;;;;;103.38;43.97;;;4.80;99.90;;;;;;5051137;28;20111;-53
2022/03/28 05:34:24;;;;;;;120.43;48.83;;;4.90;99.90;;;;;;5049081;28;20624;-53
2022/03/28 05:36:50;;;;;;;120.25;49.88;;;5.10;99.90;;;;;;5047074;28;20044;-53
2022/03/28 05:39:16;;;;;;;114.75;45.40;;;5.30;99.90;;;;;;5043207;28;20032;-53
2022/03/28 05:41:42;;;;;;;109.13;43.47;;;5.50;99.90;;;;;;5047840;28;20053;-53
2022/03/28 05:44:08;;;;;;;111.93;42.00;;;5.70;99.90;;;;;;5042765;28;20021;-53
2022/03/28 05:46:34;;;;;;;99.63;40.78;;;5.80;99.90;;;;;;5056969;28;20033;-53
2022/03/28 05:49:00;;;;;;;120.40;42.58;;;5.70;99.90;;;;;;5055025;28;20166;-53
2022/03/28 05:51:26;;;;;;;93.90;39.42;;;6.00;99.90;;;;;;5041814;28;20079;-53
2022/03/28 05:54:01;;;;;;;84.00;40.25;;;6.20;99.90;;;;;;5049366;28;20024;-53
2022/03/28 05:56:27;;;;;;;87.15;40.28;;;6.10;99.90;;;;;;5043606;28;20490;-53
2022/03/28 05:58:53;;;;;;;89.95;42.53;;;6.30;99.90;;;;;;5046561;28;20139;-53
2022/03/28 06:01:19;;;;;;;96.20;44.55;;;6.40;99.90;;;;;;5046151;28;20112;-53
2022/03/28 06:03:45;;;;;;;116.40;47.50;;;6.60;99.90;;;;;;5053816;28;20031;-53
2022/03/28 06:06:11;;;;;;;114.57;45.90;;;6.80;99.90;;;;;;5055929;28;20627;-55
2022/03/28 06:08:41;;;;;;;102.75;44.25;;;7.10;99.90;;;;;;5054931;28;20025;-52
2022/03/28 06:11:09;;;;;;;109.97;45.55;;;7.30;99.90;;;;;;5055446;28;20447;-53
2022/03/28 06:13:35;;;;;;;111.28;45.70;;;7.60;99.90;;;;;;5055984;28;20040;-54
2022/03/28 06:16:03;;;;;;;108.90;45.78;;;7.90;99.90;;;;;;5054782;28;20036;-54
2022/03/28 06:18:30;;;;;;;116.22;49.53;;;8.30;99.90;;;;;;5055536;28;20029;-54
2022/03/28 06:20:56;;;;;;;119.57;50.40;;;8.40;99.90;;;;;;5047073;28;20029;-54
2022/03/28 06:23:22;;;;;;;113.45;50.35;;;8.70;99.90;;;;;;5051325;28;20094;-53
2022/03/28 06:25:48;;;;;;;115.65;50.85;;;8.90;99.90;;;;;;5055559;28;20466;-54
2022/03/28 06:28:15;;;;;;;109.75;50.58;;;9.20;99.90;;;;;;5043540;28;20080;-54
2022/03/28 06:30:41;;;;;;;96.28;48.83;;;9.50;99.90;;;;;;5050216;28;20041;-54
2022/03/28 06:33:07;;;;;;;136.82;53.08;;;9.70;99.90;;;;;;5055609;28;20029;-54
2022/03/28 06:35:33;;;;;;;114.20;53.75;;;9.70;99.90;;;;;;5054397;28;20029;-54
2022/03/28 06:37:59;;;;;;;103.93;50.42;;;10.10;99.90;;;;;;5044382;28;20036;-54
2022/03/28 06:40:25;;;;;;;121.88;53.53;;;10.30;99.90;;;;;;5046222;28;20487;-54
2022/03/28 06:42:52;;;;;;;101.07;51.72;;;10.60;99.90;;;;;;5055746;28;20064;-54
2022/03/28 06:45:18;;;;;;;122.05;51.80;;;10.90;99.90;;;;;;5048471;28;20497;-54
2022/03/28 06:47:50;;;;;;;137.63;55.40;;;11.20;99.90;;;;;;5048881;28;20025;-54
2022/03/28 06:50:16;;;;;;;107.57;52.00;;;11.20;99.90;;;;;;5050260;28;20462;-54
2022/03/28 06:52:42;;;;;;;97.35;51.65;;;11.60;99.90;;;;;;5054796;28;20039;-54
2022/03/28 06:55:08;;;;;;;122.05;56.72;;;11.90;99.90;;;;;;5041966;28;20050;-54
2022/03/28 06:57:35;;;;;;;116.75;53.05;;;12.10;99.90;;;;;;5037441;28;20417;-54
2022/03/28 07:00:02;;;;;;;107.80;51.55;;;12.30;99.90;;;;;;5052964;28;20474;-54
2022/03/28 07:02:28;;;;;;;110.15;50.45;;;12.40;99.90;;;;;;5052958;28;20036;-54
2022/03/28 07:04:54;;;;;;;106.80;52.92;;;12.60;99.90;;;;;;5040736;28;20064;-53
2022/03/28 07:07:20;;;;;;;123.40;50.63;;;12.90;99.90;;;;;;5050046;28;20057;-53
2022/03/28 07:09:46;;;;;;;104.75;50.97;;;13.30;99.80;;;;;;5049611;28;20146;-53
2022/03/28 07:12:12;;;;;;;103.97;48.75;;;13.30;98.60;;;;;;5052000;28;20040;-53
2022/03/28 07:14:38;;;;;;;95.68;45.42;;;13.50;98.40;;;;;;5043475;28;20034;-54
2022/03/28 07:17:04;;;;;;;91.57;40.05;;;13.70;98.80;;;;;;5034189;28;20029;-54
2022/03/28 07:19:30;;;;;;;87.57;39.15;;;14.10;97.40;;;;;;5037490;28;20025;-53
2022/03/28 07:21:58;;;;;;;94.50;42.67;;;14.40;97.30;;;;;;5043892;28;20037;-53
2022/03/28 07:24:24;;;;;;;88.03;39.10;;;14.50;96.60;;;;;;5042342;28;20030;-53
2022/03/28 07:26:50;;;;;;;84.22;40.97;;;14.80;95.30;;;;;;5043886;28;20044;-53
2022/03/28 07:29:17;;;;;;;112.45;44.97;;;14.80;94.80;;;;;;5042810;28;20030;-53
2022/03/28 07:31:47;;;;;;;99.90;46.75;;;14.90;95.50;;;;;;5045698;28;20060;-53
2022/03/28 07:36:59;;;;;;;89.78;45.60;;;15.10;95.30;;;;;;5047333;28;20033;-57
2022/03/28 07:39:26;;;;;;;86.35;46.10;;;15.00;95.10;;;;;;5043964;28;20391;-54
2022/03/28 07:41:52;;;;;;;101.72;46.80;;;15.30;94.20;;;;;;5046751;28;20065;-54
2022/03/28 07:44:18;;;;;;;85.32;44.78;;;15.70;93.40;;;;;;5045255;28;20037;-54
2022/03/28 07:46:45;;;;;;;93.97;45.60;;;15.80;92.00;;;;;;5050586;28;20025;-54
2022/03/28 07:49:12;;;;;;;102.43;45.78;;;15.90;92.20;;;;;;5051951;28;20108;-54
2022/03/28 07:51:38;;;;;;;89.97;46.10;;;16.20;90.90;;;;;;5042943;28;20177;-54
2022/03/28 07:54:05;;;;;;;98.88;45.03;;;16.30;90.70;;;;;;5047127;28;20033;-54
2022/03/28 07:56:31;;;;;;;87.80;44.40;;;16.50;91.10;;;;;;5038899;28;20127;-54
2022/03/28 07:58:58;;;;;;;135.13;57.90;;;16.40;90.00;;;;;;5034050;28;20029;-54
2022/03/28 08:01:25;;;;;;;83.05;42.45;;;16.80;91.50;;;;;;5035182;28;20037;-54
2022/03/28 08:03:51;;;;;;;82.82;44.13;;;16.90;90.90;;;;;;5044622;28;20025;-54
2022/03/28 08:06:17;;;;;;;70.43;40.90;;;17.30;86.80;;;;;;5034044;28;20029;-54
2022/03/28 08:08:43;;;;;;;70.25;41.50;;;17.80;83.00;;;;;;5035001;28;20043;-54
2022/03/28 08:11:10;;;;;;;73.47;41.70;;;18.10;77.50;;;;;;5051853;28;20116;-54
2022/03/28 08:13:37;;;;;;;77.50;42.28;;;17.90;81.70;;;;;;5044310;28;20029;-54
2022/03/28 08:16:04;;;;;;;95.18;43.83;;;18.10;85.20;;;;;;5041847;28;20079;-54
2022/03/28 08:18:30;;;;;;;68.60;42.15;;;18.40;74.50;;;;;;5042472;28;20051;-54
2022/03/28 08:20:56;;;;;;;76.28;42.20;;;19.00;72.80;;;;;;5043955;28;20028;-54
2022/03/28 08:23:23;;;;;;;86.22;44.13;;;19.20;64.40;;;;;;5045931;28;20385;-54
2022/03/28 08:25:50;;;;;;;77.97;41.80;;;19.20;65.60;;;;;;5045740;28;20029;-54
2022/03/28 08:28:17;;;;;;;75.40;41.63;;;19.50;66.20;;;;;;5044328;28;20021;-56
2022/03/28 08:30:43;;;;;;;73.95;40.78;;;19.40;64.70;;;;;;5042326;28;20403;-53
2022/03/28 08:33:09;;;;;;;74.00;41.05;;;19.40;65.80;;;;;;5044638;28;20032;-54
2022/03/28 08:35:36;;;;;;;68.63;40.03;;;19.90;64.20;;;;;;5051936;28;20067;-54
2022/03/28 08:38:02;;;;;;;70.15;40.08;;;20.20;65.00;;;;;;5052993;28;20390;-55
2022/03/28 08:40:28;;;;;;;78.93;41.47;;;20.10;61.20;;;;;;5052782;28;20033;-54
2022/03/28 08:42:54;;;;;;;85.00;40.75;;;20.70;58.10;;;;;;5043029;28;20025;-54
2022/03/28 08:45:20;;;;;;;77.10;42.17;;;21.30;56.90;;;;;;5049935;28;20536;-55
2022/03/28 08:47:49;;;;;;;66.57;39.42;;;21.10;59.20;;;;;;5052518;28;20025;-55
2022/03/28 08:50:16;;;;;;;85.03;43.33;;;21.60;62.30;;;;;;5048762;28;20056;-54
2022/03/28 08:52:43;;;;;;;67.07;41.55;;;22.00;49.20;;;;;;5052988;28;20073;-54
2022/03/28 08:55:14;;;;;;;67.82;40.63;;;21.90;48.60;;;;;;5055945;28;20048;-55
2022/03/28 08:57:41;;;;;;;71.20;39.90;;;22.00;52.00;;;;;;5056193;28;20088;-54
2022/03/28 09:00:10;;;;;;;71.07;39.97;;;22.90;46.20;;;;;;5055320;28;20033;-54
2022/03/28 09:02:47;;;;;;;74.88;39.55;;;23.40;45.70;;;;;;5052127;28;20030;-54
2022/03/28 09:05:28;;;;;;;63.97;36.47;;;22.50;47.40;;;;;;5055833;28;20025;-55
2022/03/28 09:07:55;;;;;;;;;;;22.90;47.90;;;;;;5056040;28;20029;-54
2022/03/28 09:10:21;;;;;;;74.88;38.70;;;23.40;47.10;;;;;;5056867;28;19915;-55
2022/03/28 09:13:12;;;;;;;66.35;34.97;;;24.10;42.80;;;;;;5054301;28;20025;-55
2022/03/28 09:15:52;;;;;;;56.47;33.33;;;24.40;44.50;;;;;;5056254;28;20040;-55
2022/03/28 09:18:28;;;;;;;59.77;33.20;;;24.40;39.80;;;;;;5043163;28;20033;-55
2022/03/28 09:20:58;;;;;;;53.20;32.50;;;24.00;40.30;;;;;;5045074;28;20373;-55
2022/03/28 09:23:25;;;;;;;60.00;32.97;;;24.30;39.00;;;;;;5051682;28;20033;-55
2022/03/28 09:25:51;;;;;;;43.15;27.30;;;24.80;40.60;;;;;;5054394;28;20029;-54
2022/03/28 09:28:48;;;;;;;53.90;28.23;;;24.90;36.30;;;;;;5042111;28;20034;-54
2022/03/28 09:31:24;;;;;;;48.65;28.45;;;24.90;34.50;;;;;;5046764;28;20045;-56
2022/03/28 09:34:04;;;;;;;37.60;24.67;;;24.40;34.00;;;;;;5061026;28;20033;-54
2022/03/28 09:36:35;;;;;;;36.80;20.95;;;24.80;33.30;;;;;;5050970;28;20037;-54
2022/03/28 09:39:02;;;;;;;43.63;22.27;;;25.10;33.50;;;;;;5054048;28;20036;-53
2022/03/28 09:41:29;;;;;;;33.90;18.58;;;25.80;34.30;;;;;;5040439;28;20033;-54
2022/03/28 09:43:56;;;;;;;44.65;19.45;;;26.00;32.00;;;;;;5046086;28;20025;-54
2022/03/28 09:46:27;;;;;;;28.10;16.33;;;25.80;31.50;;;;;;5042816;28;20040;-54
2022/03/28 09:48:53;;;;;;;26.17;15.05;;;25.50;30.40;;;;;;5045603;28;20196;-54
2022/03/28 09:51:21;;;;;;;26.20;14.70;;;26.20;29.80;;;;;;5036393;28;20030;-54
2022/03/28 09:53:48;;;;;;;24.98;13.63;;;26.60;30.00;;;;;;5055321;28;20179;-54
2022/03/28 09:56:14;;;;;;;34.30;16.63;;;26.90;29.10;;;;;;5054986;28;20053;-54
2022/03/28 09:58:46;;;;;;;36.78;17.52;;;27.20;29.80;;;;;;5055376;28;20021;-54
2022/03/28 10:01:16;;;;;;;20.45;11.10;;;27.30;28.90;;;;;;5054382;28;20025;-54
2022/03/28 10:03:43;;;;;;;;;;;27.50;27.50;;;;;;5056085;28;20485;-54
2022/03/28 10:06:09;;;;;;;35.70;13.25;;;26.90;26.10;;;;;;5056319;28;19909;-54
2022/03/28 10:08:36;;;;;;;25.98;14.13;;;27.00;26.70;;;;;;5056538;28;20036;-54
2022/03/28 10:11:03;;;;;;;43.80;14.98;;;27.40;26.20;;;;;;5055676;28;20027;-54
2022/03/28 10:13:30;;;;;;;27.95;14.35;;;27.40;26.90;;;;;;5056323;28;20087;-54
2022/03/28 10:16:00;;;;;;;26.00;14.95;;;27.70;26.10;;;;;;5056093;28;20036;-54
2022/03/28 10:18:31;;;;;;;36.65;16.17;;;27.20;26.00;;;;;;5056150;28;20055;-54
2022/03/28 10:21:01;;;;;;;24.60;14.40;;;27.50;25.10;;;;;;5055378;28;20375;-54
2022/03/28 10:23:33;;;;;;;27.27;15.15;;;27.50;25.90;;;;;;5055697;28;20033;-54
2022/03/28 10:26:01;;;;;;;29.15;15.48;;;27.50;25.80;;;;;;5050191;28;20056;-54
2022/03/28 10:28:27;;;;;;;21.30;13.30;;;28.00;25.50;;;;;;5056030;28;20029;-54
2022/03/28 10:31:13;;;;;;;31.77;13.65;;;27.40;25.10;;;;;;5055370;28;20044;-54
2022/03/28 10:33:47;;;;;;;24.45;13.80;;;27.00;25.10;;;;;;5054184;28;20035;-54
2022/03/28 10:36:30;;;;;;;23.52;12.68;;;27.60;24.60;;;;;;5055267;28;20029;-54
2022/03/28 10:39:33;;;;;;;18.83;11.93;;;27.80;24.50;;;;;;5047357;28;20424;-54
2022/03/28 10:42:05;;;;;;;29.05;14.73;;;28.00;25.20;;;;;;5054732;28;20055;-54
2022/03/28 10:45:04;;;;;;;17.80;12.20;;;27.80;23.80;;;;;;5055391;28;20416;-54
2022/03/28 10:48:00;;;;;;;22.83;13.02;;;27.60;24.80;;;;;;5047962;28;20112;-54
2022/03/28 10:50:37;;;;;;;20.65;12.13;;;28.00;24.20;;;;;;5035326;28;20048;-54
2022/03/28 10:53:15;;;;;;;22.73;12.40;;;28.20;24.40;;;;;;5048796;28;20025;-54
2022/03/28 10:55:46;;;;;;;19.77;12.18;;;27.80;23.40;;;;;;5051326;28;20095;-54
2022/03/28 10:58:24;;;;;;;22.88;12.05;;;27.70;24.30;;;;;;5055649;28;20041;-54
2022/03/28 11:01:10;;;;;;;21.38;13.57;;;28.20;23.80;;;;;;5055634;28;20045;-54
2022/03/28 11:04:00;;;;;;;25.48;13.10;;;28.00;23.30;;;;;;5054605;28;20419;-54
2022/03/28 11:06:47;;;;;;;30.40;14.05;;;28.50;23.90;;;;;;5035593;28;20018;-54
2022/03/28 11:09:13;;;;;;;37.60;15.20;;;28.90;23.60;;;;;;5034914;28;20080;-54
2022/03/28 11:12:06;;;;;;;51.20;17.88;;;29.00;23.40;;;;;;5035080;28;20030;-54
2022/03/28 11:14:39;;;;;;;28.02;14.60;;;28.30;22.80;;;;;;5033923;28;20034;-54
2022/03/28 11:17:17;;;;;;;28.35;15.38;;;28.00;22.90;;;;;;5034322;28;20059;-54
2022/03/28 11:19:57;;;;;;;25.23;15.02;;;27.90;23.60;;;;;;5050374;28;20032;-54
2022/03/28 11:22:50;;;;;;;25.73;14.88;;;27.90;23.20;;;;;;5053596;28;20025;-55
2022/03/28 11:25:37;;;;;;;36.63;16.10;;;27.70;24.30;;;;;;5042713;28;20033;-54
2022/03/28 11:28:18;;;;;;;36.10;15.90;;;28.60;24.10;;;;;;5033908;28;20104;-55
2022/03/28 11:30:52;;;;;;;28.50;16.00;;;28.10;23.00;;;;;;5034679;28;20085;-53
2022/03/28 11:33:21;;;;;;;26.02;15.05;;;27.10;22.80;;;;;;5034660;28;20033;-54
2022/03/28 11:35:56;;;;;;;34.65;16.80;;;26.50;23.50;;;;;;5034409;28;20059;-54
2022/03/28 11:38:32;;;;;;;28.05;15.27;;;26.20;24.20;;;;;;5034361;28;20045;-54
2022/03/28 11:41:00;;;;;;;28.73;16.42;;;25.60;23.90;;;;;;5034473;28;20041;-55
2022/03/28 11:43:29;;;;;;;26.40;15.95;;;25.20;24.70;;;;;;5034539;28;20056;-53
2022/03/28 11:45:56;;;;;;;25.60;14.25;;;25.90;26.20;;;;;;5034355;28;20038;-53
2022/03/28 11:48:22;;;;;;;23.77;15.13;;;26.10;24.50;;;;;;5038422;28;20029;-53
2022/03/28 11:50:48;;;;;;;24.42;15.15;;;25.90;24.80;;;;;;5054156;28;20364;-53
2022/03/28 11:53:16;;;;;;;29.02;16.13;;;26.90;24.30;;;;;;5053015;28;20048;-53
2022/03/28 11:55:54;;;;;;;26.75;17.33;;;27.00;24.00;;;;;;5054051;28;20449;-53
2022/03/28 11:58:33;;;;;;;50.08;20.52;;;26.90;24.00;;;;;;5054127;28;20053;-53
2022/03/28 12:01:10;;;;;;;30.17;16.20;;;27.30;23.80;;;;;;5053971;28;20490;-53
2022/03/28 12:03:57;;;;;;;37.67;17.40;;;27.30;23.40;;;;;;5054222;28;20029;-53
2022/03/28 12:06:28;;;;;;;26.15;15.85;;;27.20;23.60;;;;;;5053972;28;20482;-53
2022/03/28 12:09:06;;;;;;;32.15;15.98;;;26.70;22.80;;;;;;5047927;28;20029;-55
2022/03/28 12:11:34;;;;;;;30.48;17.50;;;26.10;22.30;;;;;;5042842;28;20033;-54
2022/03/28 12:14:00;;;;;;;27.92;16.98;;;26.50;23.00;;;;;;5036529;28;20025;-56
2022/03/28 12:16:26;;;;;;;26.65;15.27;;;26.80;23.40;;;;;;5041335;28;20037;-53
2022/03/28 12:18:53;;;;;;;36.45;18.77;;;26.20;22.40;;;;;;5035335;28;20032;-53
2022/03/28 12:21:20;;;;;;;37.35;19.65;;;26.20;22.70;;;;;;5043188;28;20031;-53
2022/03/28 12:23:47;;;;;;;65.55;22.67;;;26.10;23.30;;;;;;5034084;28;20029;-54
2022/03/28 12:26:13;;;;;;;30.88;16.70;;;26.30;23.70;;;;;;5033865;28;20033;-54
2022/03/28 12:28:43;;;;;;;43.05;20.27;;;26.50;23.60;;;;;;5034718;28;20032;-54
2022/03/28 12:31:09;;;;;;;24.73;15.60;;;26.90;23.60;;;;;;5053710;28;20064;-54
2022/03/28 12:33:38;;;;;;;28.38;16.25;;;26.90;22.90;;;;;;5054339;28;20037;-54
2022/03/28 12:36:09;;;;;;;29.90;17.50;;;27.20;23.40;;;;;;5037967;28;20116;-54
2022/03/28 12:38:42;;;;;;;36.00;18.42;;;27.10;23.00;;;;;;5049202;28;20033;-54
2022/03/28 12:41:11;;;;;;;33.92;16.98;;;26.60;23.10;;;;;;5046841;28;20036;-54